GIA009 WIDD-WIII
Flight info
| Callsign | GIA009 |
|---|---|
| Flight time | N/A |
| Altitude | 37000 |
| Route | RDV/22 ANITO B470 BUNIK |
| Aircraft | B738/M-SDE2E3FGHIRWXY/LB1 |
Departure
| Time | N/A |
|---|---|
| Airport | Hang Nadim International Airport (WIDD) |
Arrival
| Time | 2026-05-05 16:57 |
|---|---|
| Airport | Soekarno-Hatta International Airport (WIII) |
| Time | Latitude | Longitude | Altitude | Speed | Heading |
|---|---|---|---|---|---|
| 2026-05-05 16:07 | -1.11601 | 105.41447 | 36907 ft | 477 kts | 144° |
| 2026-05-05 16:07 | -1.14335 | 105.43338 | 36909 ft | 478 kts | 144° |
| 2026-05-05 16:08 | -1.19809 | 105.47125 | 36899 ft | 477 kts | 144° |
| 2026-05-05 16:08 | -1.25233 | 105.50877 | 36906 ft | 477 kts | 144° |
| 2026-05-05 16:09 | -1.29802 | 105.54038 | 36904 ft | 477 kts | 144° |
| 2026-05-05 16:09 | -1.36147 | 105.58428 | 36903 ft | 477 kts | 144° |
| 2026-05-05 16:10 | -1.41599 | 105.62200 | 36911 ft | 477 kts | 144° |
| 2026-05-05 16:10 | -1.47074 | 105.65989 | 36910 ft | 478 kts | 144° |
| 2026-05-05 16:11 | -1.52544 | 105.69774 | 36912 ft | 478 kts | 144° |
| 2026-05-05 16:12 | -1.63490 | 105.77349 | 36916 ft | 479 kts | 144° |
| 2026-05-05 16:13 | -1.77162 | 105.86813 | 36915 ft | 479 kts | 144° |
| 2026-05-05 16:13 | -1.82646 | 105.90609 | 36913 ft | 479 kts | 144° |
| 2026-05-05 16:14 | -1.93593 | 105.98188 | 36903 ft | 480 kts | 144° |
| 2026-05-05 16:15 | -2.04570 | 106.05791 | 36903 ft | 480 kts | 144° |
| 2026-05-05 16:16 | -2.15664 | 106.13189 | 36908 ft | 481 kts | 153° |
| 2026-05-05 16:17 | -2.22014 | 106.15267 | 36916 ft | 482 kts | 169° |
| 2026-05-05 16:17 | -2.25324 | 106.15833 | 36914 ft | 482 kts | 170° |
| 2026-05-05 16:18 | -2.35274 | 106.17414 | 36911 ft | 482 kts | 170° |
| 2026-05-05 16:19 | -2.45214 | 106.19080 | 36914 ft | 482 kts | 169° |
| 2026-05-05 16:19 | -2.55100 | 106.20778 | 36913 ft | 482 kts | 169° |
| 2026-05-05 16:20 | -2.68325 | 106.23047 | 36914 ft | 482 kts | 169° |
| 2026-05-05 16:22 | -2.84844 | 106.25877 | 36905 ft | 481 kts | 169° |
| 2026-05-05 16:23 | -2.98036 | 106.28139 | 36908 ft | 481 kts | 169° |
| 2026-05-05 16:23 | -3.07925 | 106.29835 | 36912 ft | 481 kts | 169° |
| 2026-05-05 16:24 | -3.14489 | 106.30960 | 36904 ft | 481 kts | 169° |
| 2026-05-05 16:25 | -3.24378 | 106.32657 | 36909 ft | 481 kts | 169° |
| 2026-05-05 16:25 | -3.34284 | 106.34356 | 36908 ft | 481 kts | 169° |
| 2026-05-05 16:26 | -3.47499 | 106.36624 | 36906 ft | 482 kts | 169° |
| 2026-05-05 16:27 | -3.52992 | 106.37567 | 36908 ft | 482 kts | 169° |
| 2026-05-05 16:27 | -3.60678 | 106.38887 | 36907 ft | 482 kts | 169° |
| 2026-05-05 16:28 | -3.66228 | 106.39864 | 36901 ft | 482 kts | 168° |
| 2026-05-05 16:28 | -3.73913 | 106.41306 | 36912 ft | 484 kts | 168° |
| 2026-05-05 16:29 | -3.80537 | 106.42557 | 36910 ft | 485 kts | 168° |
| 2026-05-05 16:29 | -3.86056 | 106.43592 | 36910 ft | 486 kts | 168° |
| 2026-05-05 16:30 | -3.92708 | 106.44834 | 36906 ft | 486 kts | 168° |
| 2026-05-05 16:30 | -3.99363 | 106.46075 | 36900 ft | 487 kts | 168° |
| 2026-05-05 16:31 | -4.06969 | 106.47494 | 36908 ft | 487 kts | 168° |
| 2026-05-05 16:31 | -4.13633 | 106.48738 | 36911 ft | 487 kts | 168° |
| 2026-05-05 16:32 | -4.19166 | 106.49771 | 36909 ft | 486 kts | 168° |
| 2026-05-05 16:32 | -4.25740 | 106.50998 | 36888 ft | 467 kts | 168° |
| 2026-05-05 16:33 | -4.29934 | 106.51780 | 36712 ft | 451 kts | 168° |
| 2026-05-05 16:33 | -4.33023 | 106.52356 | 36169 ft | 450 kts | 168° |
| 2026-05-05 16:33 | -4.36089 | 106.52930 | 35713 ft | 448 kts | 168° |
| 2026-05-05 16:33 | -4.39146 | 106.53501 | 35248 ft | 445 kts | 168° |
| 2026-05-05 16:34 | -4.42184 | 106.54069 | 34792 ft | 443 kts | 168° |
| 2026-05-05 16:34 | -4.45214 | 106.54636 | 34344 ft | 441 kts | 168° |
| 2026-05-05 16:34 | -4.48226 | 106.55199 | 33892 ft | 439 kts | 168° |
| 2026-05-05 16:34 | -4.51223 | 106.55759 | 33392 ft | 437 kts | 168° |
| 2026-05-05 16:35 | -4.54210 | 106.56317 | 32891 ft | 436 kts | 168° |
| 2026-05-05 16:35 | -4.57182 | 106.56872 | 32406 ft | 434 kts | 168° |
| 2026-05-05 16:35 | -4.60143 | 106.57426 | 31927 ft | 432 kts | 168° |
| 2026-05-05 16:35 | -4.62099 | 106.57792 | 31614 ft | 431 kts | 168° |
| 2026-05-05 16:36 | -4.65039 | 106.58341 | 31142 ft | 429 kts | 168° |
| 2026-05-05 16:36 | -4.68925 | 106.59068 | 30541 ft | 427 kts | 168° |
| 2026-05-05 16:36 | -4.70895 | 106.59436 | 30234 ft | 426 kts | 168° |
| 2026-05-05 16:36 | -4.74746 | 106.60157 | 29507 ft | 425 kts | 168° |
| 2026-05-05 16:37 | -4.77656 | 106.60701 | 28889 ft | 425 kts | 168° |
| 2026-05-05 16:37 | -4.79586 | 106.61062 | 28472 ft | 425 kts | 168° |
| 2026-05-05 16:37 | -4.82497 | 106.61607 | 27853 ft | 425 kts | 168° |
| 2026-05-05 16:37 | -4.85414 | 106.62156 | 27244 ft | 425 kts | 167° |
| 2026-05-05 16:38 | -4.89124 | 106.63454 | 26449 ft | 421 kts | 154° |
| 2026-05-05 16:38 | -4.90886 | 106.64271 | 26062 ft | 420 kts | 153° |
| 2026-05-05 16:38 | -4.93519 | 106.65534 | 25490 ft | 419 kts | 153° |
| 2026-05-05 16:38 | -4.96152 | 106.66799 | 24926 ft | 418 kts | 153° |
| 2026-05-05 16:39 | -4.98749 | 106.68029 | 24362 ft | 408 kts | 153° |
| 2026-05-05 16:39 | -5.02113 | 106.69593 | 23641 ft | 396 kts | 154° |
| 2026-05-05 16:39 | -5.03785 | 106.70364 | 23235 ft | 391 kts | 154° |
| 2026-05-05 16:39 | -5.06243 | 106.71493 | 22591 ft | 383 kts | 154° |
| 2026-05-05 16:40 | -5.08615 | 106.72581 | 21972 ft | 376 kts | 154° |
| 2026-05-05 16:40 | -5.10978 | 106.73665 | 21361 ft | 370 kts | 154° |
| 2026-05-05 16:40 | -5.13335 | 106.74747 | 20781 ft | 373 kts | 154° |
| 2026-05-05 16:40 | -5.15695 | 106.75831 | 20190 ft | 375 kts | 154° |
| 2026-05-05 16:41 | -5.18074 | 106.76922 | 19634 ft | 376 kts | 154° |
| 2026-05-05 16:41 | -5.20455 | 106.78004 | 19187 ft | 374 kts | 154° |
| 2026-05-05 16:41 | -5.22823 | 106.79073 | 18740 ft | 372 kts | 154° |
| 2026-05-05 16:41 | -5.25180 | 106.80137 | 18299 ft | 370 kts | 154° |
| 2026-05-05 16:42 | -5.27525 | 106.81196 | 17804 ft | 368 kts | 154° |
| 2026-05-05 16:42 | -5.29855 | 106.82250 | 17308 ft | 366 kts | 154° |
| 2026-05-05 16:42 | -5.32171 | 106.83298 | 16811 ft | 364 kts | 154° |
| 2026-05-05 16:42 | -5.34477 | 106.84342 | 16328 ft | 362 kts | 154° |
| 2026-05-05 16:43 | -5.36771 | 106.85381 | 15850 ft | 361 kts | 154° |
| 2026-05-05 16:43 | -5.39050 | 106.86413 | 15380 ft | 359 kts | 154° |
| 2026-05-05 16:43 | -5.41318 | 106.87440 | 14910 ft | 355 kts | 154° |
| 2026-05-05 16:43 | -5.42041 | 106.87768 | 14758 ft | 351 kts | 154° |
| 2026-05-05 16:44 | -5.45658 | 106.89405 | 13995 ft | 335 kts | 154° |
| 2026-05-05 16:44 | -5.47832 | 106.90134 | 13500 ft | 329 kts | 171° |
| 2026-05-05 16:44 | -5.50100 | 106.90212 | 13014 ft | 323 kts | 179° |
| 2026-05-05 16:44 | -5.52326 | 106.90166 | 12500 ft | 317 kts | 179° |
| 2026-05-05 16:45 | -5.54511 | 106.90107 | 12023 ft | 311 kts | 179° |
| 2026-05-05 16:45 | -5.56654 | 106.90054 | 11534 ft | 306 kts | 179° |
| 2026-05-05 16:45 | -5.58770 | 106.90009 | 11066 ft | 302 kts | 179° |
| 2026-05-05 16:45 | -5.60855 | 106.89972 | 10619 ft | 297 kts | 179° |
| 2026-05-05 16:46 | -5.62904 | 106.89938 | 10223 ft | 291 kts | 179° |
| 2026-05-05 16:46 | -5.64914 | 106.89907 | 9833 ft | 286 kts | 179° |
| 2026-05-05 16:46 | -5.66889 | 106.89877 | 9406 ft | 282 kts | 178° |
| 2026-05-05 16:46 | -5.68834 | 106.89849 | 8987 ft | 277 kts | 178° |
| 2026-05-05 16:47 | -5.70750 | 106.89821 | 8568 ft | 274 kts | 178° |
| 2026-05-05 16:47 | -5.72628 | 106.89791 | 8159 ft | 270 kts | 179° |
| 2026-05-05 16:47 | -5.74494 | 106.89753 | 7753 ft | 267 kts | 179° |
| 2026-05-05 16:47 | -5.76345 | 106.89713 | 7350 ft | 265 kts | 179° |
| 2026-05-05 16:48 | -5.77586 | 106.89686 | 7076 ft | 263 kts | 179° |
| 2026-05-05 16:48 | -5.79968 | 106.89634 | 6591 ft | 253 kts | 178° |
| 2026-05-05 16:48 | -5.81703 | 106.89596 | 6189 ft | 245 kts | 178° |
| 2026-05-05 16:48 | -5.83389 | 106.89560 | 5752 ft | 239 kts | 178° |
| 2026-05-05 16:49 | -5.85027 | 106.89526 | 5381 ft | 231 kts | 178° |
| 2026-05-05 16:49 | -5.86611 | 106.89492 | 5041 ft | 224 kts | 178° |
| 2026-05-05 16:49 | -5.88148 | 106.89460 | 4698 ft | 218 kts | 178° |
| 2026-05-05 16:49 | -5.89643 | 106.89429 | 4347 ft | 212 kts | 178° |
| 2026-05-05 16:50 | -5.91102 | 106.89398 | 3997 ft | 207 kts | 178° |
| 2026-05-05 16:50 | -5.92534 | 106.89368 | 3652 ft | 204 kts | 178° |
| 2026-05-05 16:50 | -5.93946 | 106.89338 | 3319 ft | 201 kts | 178° |
| 2026-05-05 16:50 | -5.95336 | 106.89307 | 3042 ft | 196 kts | 180° |
| 2026-05-05 16:51 | -5.96593 | 106.88871 | 3015 ft | 197 kts | 216° |
| 2026-05-05 16:51 | -5.97664 | 106.87979 | 3022 ft | 201 kts | 217° |
| 2026-05-05 16:51 | -5.98742 | 106.87099 | 3009 ft | 198 kts | 217° |
| 2026-05-05 16:51 | -5.99805 | 106.86231 | 3007 ft | 196 kts | 217° |
| 2026-05-05 16:52 | -6.00854 | 106.85370 | 3002 ft | 193 kts | 217° |
| 2026-05-05 16:52 | -6.01871 | 106.84534 | 2988 ft | 184 kts | 217° |
| 2026-05-05 16:52 | -6.02856 | 106.83724 | 2989 ft | 184 kts | 217° |
| 2026-05-05 16:52 | -6.03832 | 106.82921 | 2989 ft | 183 kts | 217° |
| 2026-05-05 16:53 | -6.04688 | 106.81995 | 2983 ft | 181 kts | 241° |
| 2026-05-05 16:53 | -6.05256 | 106.80848 | 2864 ft | 186 kts | 241° |
| 2026-05-05 16:53 | -6.05798 | 106.79677 | 2643 ft | 183 kts | 245° |
| 2026-05-05 16:53 | -6.06272 | 106.78529 | 2440 ft | 170 kts | 246° |
| 2026-05-05 16:54 | -6.06703 | 106.77451 | 2214 ft | 161 kts | 247° |
| 2026-05-05 16:54 | -6.07122 | 106.76397 | 1996 ft | 163 kts | 247° |
| 2026-05-05 16:54 | -6.07546 | 106.75330 | 1783 ft | 165 kts | 247° |
| 2026-05-05 16:54 | -6.07970 | 106.74264 | 1579 ft | 163 kts | 247° |
| 2026-05-05 16:55 | -6.08385 | 106.73220 | 1354 ft | 161 kts | 247° |
| 2026-05-05 16:55 | -6.08797 | 106.72184 | 1158 ft | 159 kts | 246° |
| 2026-05-05 16:55 | -6.09207 | 106.71153 | 961 ft | 159 kts | 247° |
| 2026-05-05 16:55 | -6.09619 | 106.70118 | 754 ft | 159 kts | 247° |
| 2026-05-05 16:56 | -6.10026 | 106.69095 | 552 ft | 156 kts | 247° |
| 2026-05-05 16:56 | -6.10424 | 106.68116 | 321 ft | 147 kts | 248° |
| 2026-05-05 16:56 | -6.10792 | 106.67177 | 142 ft | 139 kts | 249° |
| 2026-05-05 16:56 | -6.11131 | 106.66314 | 40 ft | 122 kts | 249° |
| 2026-05-05 16:57 | -6.11398 | 106.65645 | 37 ft | 87 kts | 248° |
| 2026-05-05 16:57 | -6.11578 | 106.65196 | 40 ft | 51 kts | 246° |
| 2026-05-05 16:57 | -6.11749 | 106.64992 | 41 ft | 34 kts | 214° |
| 2026-05-05 16:57 | -6.11802 | 106.64973 | 39 ft | 1 kts | 183° |
| 2026-05-05 16:58 | -6.11817 | 106.64978 | 39 ft | 4 kts | 154° |
| 2026-05-05 16:58 | -6.11835 | 106.65020 | 38 ft | 10 kts | 90° |
| 2026-05-05 16:58 | -6.11809 | 106.65104 | 36 ft | 15 kts | 68° |
| 2026-05-05 16:58 | -6.11765 | 106.65212 | 36 ft | 18 kts | 69° |
| 2026-05-05 16:59 | -6.11715 | 106.65339 | 38 ft | 21 kts | 69° |
| 2026-05-05 16:59 | -6.11659 | 106.65480 | 37 ft | 23 kts | 68° |
| 2026-05-05 16:59 | -6.11597 | 106.65636 | 37 ft | 25 kts | 68° |
| 2026-05-05 16:59 | -6.11531 | 106.65803 | 37 ft | 27 kts | 69° |
| 2026-05-05 17:00 | -6.11470 | 106.65953 | 37 ft | 22 kts | 69° |
| 2026-05-05 17:00 | -6.11415 | 106.66093 | 37 ft | 21 kts | 68° |
| 2026-05-05 17:00 | -6.11361 | 106.66226 | 37 ft | 19 kts | 68° |
| 2026-05-05 17:00 | -6.11382 | 106.66306 | 37 ft | 14 kts | 150° |
| 2026-05-05 17:01 | -6.11473 | 106.66344 | 37 ft | 12 kts | 159° |
| 2026-05-05 17:01 | -6.11554 | 106.66376 | 37 ft | 12 kts | 159° |
| 2026-05-05 17:01 | -6.11624 | 106.66408 | 37 ft | 8 kts | 140° |
| 2026-05-05 17:01 | -6.11642 | 106.66461 | 37 ft | 8 kts | 82° |
| 2026-05-05 17:02 | -6.11623 | 106.66515 | 35 ft | 8 kts | 67° |
| 2026-05-05 17:02 | -6.11621 | 106.66557 | 37 ft | 5 kts | 124° |
| 2026-05-05 17:02 | -6.11650 | 106.66571 | 37 ft | 4 kts | 158° |
| 2026-05-05 17:02 | -6.11666 | 106.66578 | 36 ft | 1 kts | 158° |
| 2026-05-05 17:03 | -6.11673 | 106.66580 | 35 ft | 1 kts | 158° |
| 2026-05-05 17:03 | -6.11680 | 106.66583 | 36 ft | 1 kts | 163° |
| 2026-05-05 17:03 | -6.11684 | 106.66584 | 37 ft | 0 kts | 164° |
| 2026-05-05 17:04 | -6.11685 | 106.66584 | 35 ft | 1 kts | 169° |
| 2026-05-05 17:04 | -6.11693 | 106.66588 | 36 ft | 0 kts | 153° |
| 2026-05-05 17:04 | -6.11699 | 106.66592 | 36 ft | 0 kts | 143° |
| 2026-05-05 17:04 | -6.11703 | 106.66596 | 37 ft | 0 kts | 140° |
| 2026-05-05 17:05 | -6.11706 | 106.66599 | 37 ft | 1 kts | 137° |
| 2026-05-05 17:05 | -6.11710 | 106.66602 | 36 ft | 0 kts | 136° |
| 2026-05-05 17:05 | -6.11709 | 106.66601 | 36 ft | 0 kts | 136° |
| 2026-05-05 17:06 | -6.11709 | 106.66602 | 36 ft | 0 kts | 136° |